createdAt,value
2017-09-23T00:01:33.627Z,86.20
2017-09-23T00:04:02.867Z,86.50
2017-09-23T00:06:32.120Z,86.60
2017-09-23T00:09:02.520Z,86.90
2017-09-23T00:11:33.216Z,87.50
2017-09-23T00:14:02.424Z,86.70
2017-09-23T00:16:32.806Z,87.10
2017-09-23T00:19:02.592Z,87.10
2017-09-23T00:21:31.864Z,86.90
2017-09-23T00:24:01.242Z,86.30
2017-09-23T00:26:30.597Z,86.40
2017-09-23T00:28:59.767Z,86.20
2017-09-23T00:31:29.818Z,86.80
2017-09-23T00:33:59.000Z,86.80
2017-09-23T00:36:28.177Z,87.10
2017-09-23T00:38:57.679Z,87.30
2017-09-23T00:41:26.877Z,87.10
2017-09-23T00:43:56.100Z,88.10
2017-09-23T00:46:25.302Z,87.10
2017-09-23T00:48:55.190Z,87.10
2017-09-23T00:51:25.183Z,87.10
2017-09-23T00:53:55.214Z,87.30
2017-09-23T00:56:24.430Z,86.90
2017-09-23T00:58:53.606Z,87.30
2017-09-23T01:01:22.805Z,87.80
2017-09-23T01:03:51.985Z,87.80
2017-09-23T01:06:21.152Z,87.70
2017-09-23T01:08:50.484Z,87.40
2017-09-23T01:11:19.796Z,87.20
2017-09-23T01:13:48.963Z,87.30
2017-09-23T01:16:20.016Z,87.00
2017-09-23T01:18:50.910Z,87.00
2017-09-23T01:21:20.849Z,86.50
2017-09-23T01:23:51.025Z,86.60
2017-09-23T01:26:20.998Z,86.00
2017-09-23T01:28:50.509Z,86.00
2017-09-23T01:31:20.768Z,86.20
2017-09-23T01:33:49.933Z,86.00
2017-09-23T01:36:19.414Z,85.80
2017-09-23T01:38:48.561Z,85.90
2017-09-23T01:41:17.733Z,86.30
2017-09-23T01:43:47.162Z,86.00
2017-09-23T01:46:16.354Z,85.90
2017-09-23T01:48:45.550Z,85.80
2017-09-23T01:51:14.925Z,85.60
2017-09-23T01:53:44.850Z,86.00
2017-09-23T01:56:14.042Z,85.30
2017-09-23T01:58:43.328Z,85.20
2017-09-23T02:01:12.496Z,85.00
2017-09-23T02:03:41.654Z,85.20
2017-09-23T02:06:11.039Z,85.40
2017-09-23T02:08:40.267Z,85.30
2017-09-23T02:11:09.459Z,85.10
2017-09-23T02:13:38.924Z,85.40
2017-09-23T02:16:08.072Z,85.50
2017-09-23T02:18:37.285Z,85.40
2017-09-23T02:21:07.769Z,85.20
2017-09-23T02:23:36.959Z,84.90
2017-09-23T02:26:06.166Z,84.70
2017-09-23T02:28:35.542Z,85.00
2017-09-23T02:31:04.742Z,85.00
2017-09-23T02:33:33.924Z,85.20
2017-09-23T02:36:03.522Z,85.50
2017-09-23T02:38:33.503Z,86.20
2017-09-23T02:41:02.874Z,86.20
2017-09-23T02:43:32.284Z,86.10
2017-09-23T02:46:01.461Z,86.10
2017-09-23T02:48:30.633Z,85.70
2017-09-23T02:50:59.961Z,85.50
2017-09-23T02:53:29.158Z,85.60
2017-09-23T02:55:59.131Z,85.50
2017-09-23T02:58:28.732Z,85.50
2017-09-23T03:00:58.669Z,85.00
2017-09-23T03:03:27.849Z,85.00
2017-09-23T03:05:57.352Z,84.90
2017-09-23T03:08:26.565Z,84.70
2017-09-23T03:10:55.725Z,84.40
2017-09-23T03:13:25.096Z,84.30
2017-09-23T03:15:54.260Z,84.20
2017-09-23T03:18:23.408Z,84.30
2017-09-23T03:20:52.879Z,84.20
2017-09-23T03:23:22.046Z,84.80
2017-09-23T03:25:51.246Z,83.90
2017-09-23T03:28:20.575Z,83.60
2017-09-23T03:30:50.489Z,84.00
2017-09-23T03:33:19.677Z,83.90
2017-09-23T03:35:50.214Z,84.40
2017-09-23T03:38:19.387Z,84.50
2017-09-23T03:40:48.665Z,83.30
2017-09-23T03:43:18.161Z,83.40
2017-09-23T03:45:48.486Z,83.90
2017-09-23T03:48:17.674Z,84.60
2017-09-23T03:50:47.081Z,84.80
2017-09-23T03:53:19.051Z,85.20
2017-09-23T03:55:48.569Z,85.20
2017-09-23T03:58:17.728Z,85.20
2017-09-23T04:00:46.970Z,85.50
2017-09-23T04:03:16.398Z,85.70
2017-09-23T04:05:46.337Z,86.10
2017-09-23T04:08:15.513Z,86.10
2017-09-23T04:10:45.023Z,86.20
2017-09-23T04:13:14.209Z,86.10
2017-09-23T04:15:43.487Z,85.70
2017-09-23T04:18:13.131Z,85.70
2017-09-23T04:20:43.144Z,85.30
2017-09-23T04:23:12.385Z,85.30
2017-09-23T04:25:41.847Z,85.80
2017-09-23T04:28:13.638Z,85.00
2017-09-23T04:30:43.038Z,84.90
2017-09-23T04:33:12.211Z,84.90
2017-09-23T04:35:42.106Z,84.90
2017-09-23T04:38:12.202Z,84.80
2017-09-23T04:40:41.332Z,84.80
2017-09-23T04:43:10.444Z,84.80
2017-09-23T04:45:39.853Z,84.40
2017-09-23T04:48:08.969Z,84.70
2017-09-23T04:50:38.599Z,84.80
2017-09-23T04:53:07.853Z,84.90
2017-09-23T04:55:36.990Z,84.90
2017-09-23T04:58:06.141Z,85.00
2017-09-23T05:00:35.754Z,85.10
2017-09-23T05:03:04.952Z,84.90
2017-09-23T05:05:34.872Z,85.00
2017-09-23T05:08:04.283Z,84.30
2017-09-23T05:10:50.367Z,84.20
2017-09-23T05:13:19.910Z,83.50
2017-09-23T05:15:49.805Z,84.40
2017-09-23T05:18:19.750Z,84.40
2017-09-23T05:20:48.898Z,84.40
2017-09-23T05:23:18.779Z,83.60
2017-09-23T05:25:48.901Z,83.60
2017-09-23T05:28:19.099Z,83.60
2017-09-23T05:30:48.970Z,83.00
2017-09-23T05:33:18.148Z,82.80
2017-09-23T05:35:47.566Z,82.50
2017-09-23T05:38:17.438Z,83.70
2017-09-23T05:40:46.612Z,83.70
2017-09-23T05:43:15.756Z,83.40
2017-09-23T05:45:44.880Z,82.30
2017-09-23T05:48:14.011Z,82.50
2017-09-23T05:50:43.352Z,82.90
2017-09-23T05:53:12.514Z,83.50
2017-09-23T05:55:41.619Z,83.70
2017-09-23T05:58:11.089Z,84.80
2017-09-23T06:00:40.209Z,84.70
2017-09-23T06:03:10.113Z,85.10
2017-09-23T06:05:40.089Z,84.80
2017-09-23T06:08:09.283Z,84.80
2017-09-23T06:10:39.189Z,84.10
2017-09-23T06:13:08.727Z,84.00
2017-09-23T06:15:37.847Z,84.30
2017-09-23T06:18:06.996Z,84.50
2017-09-23T06:20:36.314Z,83.90
2017-09-23T06:23:05.465Z,83.30
2017-09-23T06:25:34.663Z,83.30
2017-09-23T06:28:04.808Z,82.70
2017-09-23T06:30:35.147Z,82.70
2017-09-23T06:33:04.504Z,82.90
2017-09-23T06:35:33.890Z,83.20
2017-09-23T06:38:03.152Z,82.70
2017-09-23T06:40:32.415Z,82.70
2017-09-23T06:43:01.948Z,82.20
2017-09-23T06:45:31.124Z,81.90
2017-09-23T06:48:01.430Z,81.80
2017-09-23T06:50:31.025Z,81.80
2017-09-23T06:53:00.875Z,81.60
2017-09-23T06:55:30.107Z,81.60
2017-09-23T06:57:59.278Z,81.30
2017-09-23T07:00:29.233Z,81.30
2017-09-23T07:02:58.438Z,81.20
2017-09-23T07:05:27.758Z,80.90
2017-09-23T07:07:57.012Z,80.40
2017-09-23T07:10:26.255Z,80.20
2017-09-23T07:12:55.613Z,79.80
2017-09-23T07:15:24.819Z,80.00
2017-09-23T07:17:53.974Z,79.50
2017-09-23T07:20:24.384Z,80.00
2017-09-23T07:22:55.257Z,78.80
2017-09-23T07:25:24.487Z,78.80
2017-09-23T07:27:53.965Z,78.70
2017-09-23T07:30:23.093Z,78.80
2017-09-23T07:32:52.239Z,78.10
2017-09-23T07:35:22.172Z,77.80
2017-09-23T07:37:52.400Z,77.60
2017-09-23T07:40:21.574Z,76.50
2017-09-23T07:42:51.042Z,75.80
2017-09-23T07:45:20.158Z,75.90
2017-09-23T07:47:49.326Z,75.20
2017-09-23T07:50:19.014Z,74.80
2017-09-23T07:52:48.125Z,74.60
2017-09-23T07:55:17.248Z,74.40
2017-09-23T07:57:47.493Z,74.40
2017-09-23T08:00:16.590Z,74.40
2017-09-23T08:02:45.681Z,74.80
2017-09-23T08:05:14.985Z,74.10
2017-09-23T08:07:44.089Z,75.00
2017-09-23T08:10:13.184Z,75.60
2017-09-23T08:12:42.318Z,75.40
2017-09-23T08:15:11.468Z,75.00
2017-09-23T08:17:40.561Z,74.20
2017-09-23T08:20:10.048Z,74.30
2017-09-23T08:22:39.197Z,74.40
2017-09-23T08:25:08.315Z,75.40
2017-09-23T08:27:37.814Z,74.70
2017-09-23T08:30:06.967Z,74.50
2017-09-23T08:32:36.187Z,74.20
2017-09-23T08:35:06.313Z,73.00
2017-09-23T08:37:35.943Z,73.00
2017-09-23T08:40:05.081Z,74.40
2017-09-23T08:42:35.860Z,72.40
2017-09-23T08:45:05.953Z,72.40
2017-09-23T08:47:35.131Z,70.10
2017-09-23T08:50:05.320Z,68.80
2017-09-23T08:52:34.406Z,66.80
2017-09-23T08:55:03.608Z,64.90
2017-09-23T08:57:33.173Z,62.10
2017-09-23T09:00:02.356Z,61.90
2017-09-23T09:02:32.474Z,62.30
2017-09-23T09:05:01.755Z,62.40
2017-09-23T09:07:30.874Z,62.20
2017-09-23T09:10:00.030Z,60.50
2017-09-23T09:12:29.577Z,60.30
2017-09-23T09:15:00.076Z,58.00
2017-09-23T09:17:29.993Z,58.70
2017-09-23T09:19:59.423Z,58.70
2017-09-23T09:22:28.566Z,58.50
2017-09-23T09:24:58.467Z,55.60
2017-09-23T09:27:27.978Z,55.40
2017-09-23T09:29:57.187Z,52.80
2017-09-23T09:32:26.311Z,53.80
2017-09-23T09:34:56.650Z,52.10
2017-09-23T09:37:25.765Z,51.80
2017-09-23T09:39:55.086Z,52.20
2017-09-23T09:42:25.287Z,51.30
2017-09-23T09:44:54.474Z,51.30
2017-09-23T09:47:25.456Z,52.40
2017-09-23T09:49:54.734Z,55.50
2017-09-23T09:52:24.856Z,56.10
2017-09-23T09:54:54.000Z,54.50
2017-09-23T09:57:23.908Z,54.60
2017-09-23T09:59:53.009Z,53.10
2017-09-23T10:02:22.154Z,54.20
2017-09-23T10:04:53.345Z,52.40
2017-09-23T10:07:22.606Z,52.30
2017-09-23T10:09:51.779Z,50.70
2017-09-23T10:12:21.483Z,50.20
2017-09-23T10:14:50.599Z,50.00
2017-09-23T10:17:20.640Z,50.90
2017-09-23T10:19:50.049Z,50.90
2017-09-23T10:22:19.142Z,51.30
2017-09-23T10:24:48.627Z,50.40
2017-09-23T10:27:18.282Z,49.20
2017-09-23T10:29:48.348Z,51.00
2017-09-23T10:32:18.804Z,52.10
2017-09-23T10:34:48.026Z,52.00
2017-09-23T10:37:17.102Z,52.80
2017-09-23T10:39:46.208Z,52.30
2017-09-23T10:42:16.498Z,51.60
2017-09-23T10:44:46.554Z,51.60
2017-09-23T10:47:15.663Z,51.60
2017-09-23T10:49:45.120Z,50.70
2017-09-23T10:52:14.205Z,49.40
2017-09-23T10:54:44.449Z,49.70
2017-09-23T10:57:14.029Z,49.50
2017-09-23T10:59:43.161Z,51.30
2017-09-23T11:02:12.340Z,51.50
2017-09-23T11:04:41.694Z,53.30
2017-09-23T11:07:10.789Z,53.00
2017-09-23T11:09:41.726Z,51.00
2017-09-23T11:12:12.541Z,51.20
2017-09-23T11:14:42.769Z,52.60
2017-09-23T11:17:11.908Z,52.60
2017-09-23T11:19:41.383Z,54.60
2017-09-23T11:22:10.518Z,55.00
2017-09-23T11:24:40.697Z,55.90
2017-09-23T11:27:11.797Z,59.10
2017-09-23T11:29:41.114Z,59.10
2017-09-23T11:32:11.343Z,58.90
2017-09-23T11:34:40.925Z,58.90
2017-09-23T11:37:11.815Z,55.20
2017-09-23T11:39:41.341Z,55.20
2017-09-23T11:42:10.561Z,53.80
2017-09-23T11:44:39.694Z,53.40
2017-09-23T11:47:09.775Z,51.10
2017-09-23T11:49:40.069Z,50.60
2017-09-23T11:52:09.249Z,50.40
2017-09-23T11:54:38.780Z,51.20
2017-09-23T11:57:12.681Z,50.30
2017-09-23T11:59:44.096Z,52.20
2017-09-23T12:02:15.214Z,51.70
2017-09-23T12:04:49.541Z,51.70
2017-09-23T12:07:20.219Z,52.90
2017-09-23T12:09:50.535Z,53.00
2017-09-23T12:12:19.681Z,53.80
2017-09-23T12:14:48.799Z,55.30
2017-09-23T12:17:18.214Z,54.30
2017-09-23T12:19:48.126Z,54.10
2017-09-23T12:22:17.296Z,54.00
2017-09-23T12:24:47.209Z,51.00
2017-09-23T12:27:16.306Z,50.90
2017-09-23T12:29:45.661Z,49.30
2017-09-23T12:32:15.753Z,50.60
2017-09-23T12:34:44.923Z,50.60
2017-09-23T12:37:15.258Z,51.40
2017-09-23T12:39:47.110Z,53.90
2017-09-23T12:42:16.952Z,54.50
2017-09-23T12:44:46.114Z,54.50
2017-09-23T12:47:15.878Z,55.70
2017-09-23T12:49:45.053Z,56.20
2017-09-23T12:52:14.974Z,56.60
2017-09-23T12:54:44.656Z,56.50
2017-09-23T12:57:14.527Z,54.40
2017-09-23T12:59:44.456Z,54.80
2017-09-23T13:02:13.899Z,54.90
2017-09-23T13:04:43.059Z,54.70
2017-09-23T13:07:12.192Z,55.00
2017-09-23T13:09:43.326Z,55.90
2017-09-23T13:12:13.243Z,56.40
2017-09-23T13:14:42.348Z,56.90
2017-09-23T13:17:11.983Z,55.40
2017-09-23T13:19:41.142Z,56.30
2017-09-23T13:22:10.236Z,56.10
2017-09-23T13:24:39.668Z,55.80
2017-09-23T13:27:08.864Z,56.60
2017-09-23T13:29:39.086Z,58.50
2017-09-23T13:32:08.488Z,58.80
2017-09-23T13:34:37.678Z,58.50
2017-09-23T13:37:06.843Z,58.90
2017-09-23T13:39:40.591Z,60.40
2017-09-23T13:42:16.631Z,61.80
2017-09-23T13:44:49.231Z,62.20
2017-09-23T13:47:18.877Z,62.70
2017-09-23T13:49:48.758Z,62.70
2017-09-23T13:52:18.263Z,62.60
2017-09-23T13:54:47.381Z,63.20
2017-09-23T13:57:16.475Z,62.50
2017-09-23T13:59:45.881Z,62.40
2017-09-23T14:02:15.048Z,61.70
2017-09-23T14:04:44.151Z,61.40
2017-09-23T14:07:13.550Z,60.60
2017-09-23T14:09:42.646Z,61.00
2017-09-23T14:12:12.579Z,61.10
2017-09-23T14:14:42.818Z,61.10
2017-09-23T14:17:11.955Z,61.00
2017-09-23T14:19:41.101Z,60.00
2017-09-23T14:22:11.401Z,63.00
2017-09-23T14:24:40.601Z,63.00
2017-09-23T14:27:10.474Z,61.40
2017-09-23T14:29:39.943Z,61.30
2017-09-23T14:32:09.248Z,61.20
2017-09-23T14:34:38.348Z,60.70
2017-09-23T14:37:08.214Z,61.30
2017-09-23T14:39:37.361Z,61.10
2017-09-23T14:42:06.464Z,61.80
2017-09-23T14:44:35.927Z,60.90
2017-09-23T14:47:05.040Z,61.20
2017-09-23T14:49:35.217Z,61.20
2017-09-23T14:52:04.384Z,60.50
2017-09-23T14:54:33.555Z,60.50
2017-09-23T14:57:03.489Z,60.20
2017-09-23T14:59:32.671Z,60.20
2017-09-23T15:02:01.789Z,60.10
2017-09-23T15:04:30.932Z,60.00
2017-09-23T15:07:00.299Z,60.60
2017-09-23T15:09:29.431Z,61.40
2017-09-23T15:12:00.361Z,62.20
2017-09-23T15:14:29.922Z,62.70
2017-09-23T15:16:59.026Z,63.40
2017-09-23T15:19:28.225Z,61.00
2017-09-23T15:22:01.417Z,60.20
2017-09-23T15:24:35.992Z,60.00
2017-09-23T15:27:06.327Z,60.00
2017-09-23T15:29:39.740Z,61.10
2017-09-23T15:32:11.973Z,61.00
2017-09-23T15:34:42.402Z,62.10
2017-09-23T15:37:11.546Z,62.10
2017-09-23T15:39:46.675Z,63.30
2017-09-23T15:42:16.666Z,65.80
2017-09-23T15:44:45.865Z,65.80
2017-09-23T15:47:16.640Z,67.10
2017-09-23T15:49:47.139Z,67.10
2017-09-23T15:52:16.271Z,67.40
2017-09-23T15:54:47.915Z,68.20
2017-09-23T15:57:17.174Z,69.60
2017-09-23T15:59:48.349Z,69.80
2017-09-23T16:02:17.939Z,70.70
2017-09-23T16:04:48.798Z,71.50
2017-09-23T16:07:18.922Z,71.50
2017-09-23T16:09:48.065Z,71.10
2017-09-23T16:12:17.225Z,71.20
2017-09-23T16:14:49.124Z,70.70
2017-09-23T16:17:19.140Z,71.70
2017-09-23T16:19:48.584Z,71.70
2017-09-23T16:22:18.411Z,73.00
2017-09-23T16:24:53.194Z,72.90
2017-09-23T16:27:23.506Z,72.80
2017-09-23T16:29:55.120Z,72.30
2017-09-23T16:32:25.711Z,73.20
2017-09-23T16:34:54.844Z,72.80
2017-09-23T16:37:24.092Z,73.60
2017-09-23T16:39:55.305Z,73.90
2017-09-23T16:42:24.387Z,73.90
2017-09-23T16:44:53.475Z,74.20
2017-09-23T16:47:24.860Z,75.40
2017-09-23T16:49:54.768Z,76.20
2017-09-23T16:52:24.046Z,76.20
2017-09-23T16:54:54.128Z,76.60
2017-09-23T16:57:23.254Z,76.10
2017-09-23T16:59:53.096Z,76.50
2017-09-23T17:02:22.398Z,77.50
2017-09-23T17:04:51.502Z,77.50
2017-09-23T17:07:20.672Z,77.30
2017-09-23T17:09:50.094Z,78.00
2017-09-23T17:12:19.403Z,78.30
2017-09-23T17:14:48.523Z,78.80
2017-09-23T17:17:18.312Z,79.00
2017-09-23T17:19:47.803Z,79.30
2017-09-23T17:22:16.903Z,79.70
2017-09-23T17:24:46.065Z,80.00
2017-09-23T17:27:15.190Z,80.20
2017-09-23T17:29:45.555Z,80.40
2017-09-23T17:32:17.635Z,80.80
2017-09-23T17:34:47.159Z,80.80
2017-09-23T17:37:19.010Z,80.60
2017-09-23T17:39:48.486Z,80.40
2017-09-23T17:42:18.719Z,80.50
2017-09-23T17:44:47.929Z,80.50
2017-09-23T17:47:18.023Z,81.00
2017-09-23T17:49:50.341Z,81.00
2017-09-23T17:52:20.738Z,81.70
2017-09-23T17:54:50.028Z,81.60
2017-09-23T17:57:19.408Z,81.90
2017-09-23T17:59:49.261Z,82.10
2017-09-23T18:02:18.505Z,82.50
2017-09-23T18:04:48.418Z,83.10
2017-09-23T18:07:17.917Z,83.10
2017-09-23T18:09:48.089Z,83.00
2017-09-23T18:12:17.856Z,83.10
2017-09-23T18:14:47.417Z,83.20
2017-09-23T18:17:16.512Z,83.20
2017-09-23T18:19:47.553Z,83.30
2017-09-23T18:22:17.051Z,83.30
2017-09-23T18:24:49.219Z,83.50
2017-09-23T18:27:18.900Z,83.40
2017-09-23T18:29:50.311Z,83.60
2017-09-23T18:32:19.968Z,83.70
2017-09-23T18:34:49.102Z,83.80
2017-09-23T18:37:18.270Z,83.80
2017-09-23T18:39:47.818Z,84.00
2017-09-23T18:42:16.985Z,84.00
2017-09-23T18:44:46.876Z,84.10
2017-09-23T18:47:16.778Z,84.20
2017-09-23T18:49:45.893Z,84.20
2017-09-23T18:52:15.018Z,84.20
2017-09-23T18:54:44.576Z,84.30
2017-09-23T18:57:13.721Z,84.30
2017-09-23T18:59:43.665Z,84.20
2017-09-23T19:02:13.205Z,84.20
2017-09-23T19:04:43.149Z,84.10
2017-09-23T19:07:12.275Z,84.10
2017-09-23T19:09:42.121Z,84.30
2017-09-23T19:12:11.266Z,84.40
2017-09-23T19:14:41.073Z,84.60
2017-09-23T19:17:11.809Z,84.90
2017-09-23T19:19:41.662Z,84.90
2017-09-23T19:22:10.794Z,85.10
2017-09-23T19:24:40.157Z,85.20
2017-09-23T19:27:10.204Z,85.20
2017-09-23T19:29:39.503Z,85.10
2017-09-23T19:32:08.753Z,85.10
2017-09-23T19:34:38.596Z,85.10
2017-09-23T19:37:08.978Z,84.90
2017-09-23T19:39:39.337Z,84.70
2017-09-23T19:42:09.258Z,84.20
2017-09-23T19:44:38.453Z,84.10
2017-09-23T19:47:07.870Z,83.80
2017-09-23T19:49:37.363Z,83.70
2017-09-23T19:52:06.563Z,83.50
2017-09-23T19:54:37.877Z,83.30
2017-09-23T19:57:07.157Z,82.90
2017-09-23T19:59:36.405Z,82.70
2017-09-23T20:02:06.039Z,83.10
2017-09-23T20:04:35.439Z,83.00
2017-09-23T20:07:04.761Z,82.80
2017-09-23T20:09:34.360Z,82.60
2017-09-23T20:12:03.959Z,82.60
2017-09-23T20:14:33.208Z,82.80
2017-09-23T20:17:02.540Z,83.10
2017-09-23T20:19:33.081Z,83.00
2017-09-23T20:22:02.388Z,82.80
2017-09-23T20:24:32.195Z,82.70
2017-09-23T20:27:01.462Z,82.90
2017-09-23T20:29:30.935Z,82.70
2017-09-23T20:32:00.360Z,82.60
2017-09-23T20:34:30.255Z,82.50
2017-09-23T20:36:59.421Z,82.40
2017-09-23T20:39:29.715Z,82.40
2017-09-23T20:41:59.595Z,82.30
2017-09-23T20:44:28.736Z,82.20
2017-09-23T20:46:58.980Z,82.30
2017-09-23T20:49:28.088Z,82.20
2017-09-23T20:51:57.217Z,82.50
2017-09-23T20:54:26.591Z,82.80
2017-09-23T20:56:57.455Z,83.40
2017-09-23T20:59:28.499Z,83.40
2017-09-23T21:01:57.646Z,84.40
2017-09-23T21:04:28.942Z,83.80
2017-09-23T21:06:58.311Z,83.80
2017-09-23T21:09:27.417Z,84.00
2017-09-23T21:11:57.682Z,84.20
2017-09-23T21:14:26.856Z,84.20
2017-09-23T21:16:55.970Z,84.50
2017-09-23T21:19:25.159Z,84.70
2017-09-23T21:21:54.540Z,84.90
2017-09-23T21:24:24.436Z,84.30
2017-09-23T21:26:53.608Z,84.30
2017-09-23T21:29:24.007Z,84.00
2017-09-23T21:31:53.388Z,84.00
2017-09-23T21:34:24.204Z,84.10
2017-09-23T21:36:54.611Z,83.80
2017-09-23T21:39:24.538Z,83.70
2017-09-23T21:41:53.664Z,83.70
2017-09-23T21:44:23.241Z,83.80
2017-09-23T21:46:52.421Z,84.20
2017-09-23T21:49:21.844Z,84.20
2017-09-23T21:51:51.208Z,84.30
2017-09-23T21:54:20.317Z,84.70
2017-09-23T21:56:49.483Z,85.30
2017-09-23T21:59:20.123Z,85.60
2017-09-23T22:01:50.179Z,85.70
2017-09-23T22:04:20.336Z,86.00
2017-09-23T22:06:50.817Z,86.30
2017-09-23T22:09:19.977Z,85.80
2017-09-23T22:11:49.354Z,85.60
2017-09-23T22:14:19.232Z,85.50
2017-09-23T22:16:48.400Z,85.50
2017-09-23T22:19:17.935Z,85.50
2017-09-23T22:21:47.159Z,85.70
2017-09-23T22:24:17.122Z,86.90
2017-09-23T22:26:46.639Z,86.20
2017-09-23T22:29:16.809Z,86.30
2017-09-23T22:31:46.209Z,86.30
2017-09-23T22:34:15.458Z,86.20
2017-09-23T22:36:44.671Z,86.00
2017-09-23T22:39:14.655Z,86.10
2017-09-23T22:41:43.914Z,86.00
2017-09-23T22:44:14.009Z,86.40
2017-09-23T22:46:43.415Z,86.50
2017-09-23T22:49:14.478Z,86.50
2017-09-23T22:51:43.739Z,86.90
2017-09-23T22:54:12.869Z,86.80
2017-09-23T22:56:42.391Z,87.10
2017-09-23T22:59:11.607Z,86.80
2017-09-23T23:01:40.781Z,86.60
2017-09-23T23:04:11.136Z,86.10
2017-09-23T23:06:40.390Z,86.10
2017-09-23T23:09:10.493Z,86.00
2017-09-23T23:11:40.222Z,86.00
2017-09-23T23:14:09.574Z,86.20
2017-09-23T23:16:38.946Z,86.40
2017-09-23T23:19:09.033Z,87.40
2017-09-23T23:21:39.260Z,87.40
2017-09-23T23:24:09.581Z,88.00
2017-09-23T23:26:38.925Z,88.00
2017-09-23T23:29:08.999Z,89.30
2017-09-23T23:31:38.359Z,88.60
2017-09-23T23:34:07.531Z,88.50
2017-09-23T23:36:36.726Z,88.50
2017-09-23T23:39:06.024Z,88.30
2017-09-23T23:41:35.272Z,88.00
2017-09-23T23:44:05.350Z,88.10
2017-09-23T23:46:34.682Z,88.00
2017-09-23T23:49:03.922Z,88.40
2017-09-23T23:51:33.343Z,89.00
2017-09-23T23:54:03.589Z,89.30
2017-09-23T23:56:32.762Z,89.30
2017-09-23T23:59:02.035Z,89.50
